Terminal Aerodrome Forecast
Issued by NWS Cleveland, OH

Home | Current Version | Previous Version | Graphics & Text | Print | Product List | Glossary On
Versions: 1 2 3 4 5 6 7 8 9 10 11 12 13 14 15 16 17 18 19 20 21 22 23 24 25
922
FTUS41 KCLE 222346
TAFMFD
TAF
KMFD 222346Z 2300/2324 05005KT P6SM OVC100
     FM230300 05008KT P6SM OVC035
     FM230600 05008KT 5SM BR VCSH OVC025
     FM230900 04010KT 3SM -RA BR OVC008
     FM231200 04010KT 2SM -RA BR OVC004=

USA.gov is the U.S. government's official web portal to all federal, state and local government web resources and services.